To NAV CANADA Home Page Login to a new session Search on AWWS site Disclaimer Vers la page française équivalente Tips FAQ What's new on the site To the Forecasts and Observations / NOTAM section To "File a Flight Plan" website Publications and other links Update of the User's profile FIC Telephone Numbers My Weather Data Folder Route Weather Data Regional Weather Data Local Weather Data To the Forecasts and Observations / NOTAM section
Request Generated 08/19/2022 at 02:39:16 UTC . Weather information available at that time is displayed.

METAR/TAF

MUSKRAT DAM/ON    (show WxCam)

METAR CZMD 190200Z AUTO 01007KT 9SM OVC110 21/16 A2991 RMK SLP134 DENSITY ALT 1900FT=
METAR CZMD 190100Z AUTO 02006KT 9SM FEW091 BKN130 22/16 A2989 RMK SLP129 DENSITY ALT 2000FT=
SPECI CZMD 190054Z AUTO 02007KT 9SM FEW096 BKN120 22/16 A2989 RMK LTNG DIST SW SLP126 DENSITY ALT 2000FT=
SPECI CZMD 190044Z AUTO 03008KT 4SM HZ FEW091 BKN130 23/16 A2989 RMK LTNG DIST SW SLP126 DENSITY ALT 2100FT=
METAR CZMD 190000Z AUTO 02009G15KT 9SM FEW130 23/16 A2988 RMK LTNG DIST SW SLP123 DENSITY ALT 2100FT=

*** REMARK        : Forecast period has ended; this was the last TAF issued
*** REMARQUE : La période de prévision est échue; ceci était le dernier TAF qui a été émis
TAF AMD CZMD 182147Z 1821/1822 VRB03KT P6SM FEW040 BKN080 TEMPO
1821/1822 2SM TSRA BR BKN020 OVC040CB
RMK FCST BASED ON AUTO OBS. NXT FCST BY 191000Z=
Your time UTC time
Weather data provided by Environment Canada and NAV CANADA